Terminal Aerodrome Forecast
Issued by NWS Wichita, KS

Home | Current Version | Previous Version | Text Only | Print | Product List | Glossary On
Versions: 1 2 3 4 5 6 7 8 9 10 11 12 13 14 15 16 17 18 19
000
FTUS43 KICT 220200 AAA
TAFICT
TAF AMD
KICT 220200Z 2202/2224 19005KT P6SM VCSH BKN090
     FM220700 06014G20KT P6SM VCTS BKN070CB
     FM220900 07013G18KT P6SM SCT050=

USA.gov is the U.S. government's official web portal to all federal, state and local government web resources and services.